LGKR/CFU METAR and TAF weather

Enter ICAO airport designator
Station Type Date Time Source
LGKR METAR 2021/07/28 20:50 UTC NOAA

LGKR 282050Z 09003KT 9999 FEW035 30/23 Q1012 NOSIG


Station Type Date Time Source
LGKR Decoded METAR 2021/07/28 20:50 UTC NOAA

Kerkyra Airport , Greece (LGKR) 39-37N 019-55E 4M
Jul 28, 2021 - 04:50 PM EDT / 2021.07.28 2050 UTC
Wind: from the E (090 degrees) at 3 MPH (3 KT):0
Visibility: greater than 7 mile(s):0
Sky conditions: mostly clear
Temperature: 86 F (30 C)
Heat index: 93.4 F (34.1 C):1
Dew Point: 73 F (23 C)
Relative Humidity: 66%
Pressure (altimeter): 29.88 in. Hg (1012 hPa)
ob: LGKR 282050Z 09003KT 9999 FEW035 30/23 Q1012 NOSIG
cycle: 21

Station Type Date Time Source
LGKR TAF 2021/07/28 18:13 UTC NOAA

TAF LGKR 281700Z 2818/2918 VRB03KT 9999 FEW018
BECMG 2907/2909 14010KT
BECMG 2911/2913 28010KT

Example: see airport list